createdAt,value
2019-02-24T00:04:52.312Z,-0.10
2019-02-24T00:09:55.751Z,0.00
2019-02-24T00:14:59.595Z,0.10
2019-02-24T00:20:02.876Z,0.20
2019-02-24T00:25:06.177Z,0.30
2019-02-24T00:30:09.902Z,0.30
2019-02-24T00:35:13.876Z,0.40
2019-02-24T00:40:18.874Z,0.40
2019-02-24T00:45:22.507Z,0.40
2019-02-24T00:50:26.922Z,0.40
2019-02-24T00:55:30.693Z,0.40
2019-02-24T01:00:34.512Z,0.50
2019-02-24T01:05:37.885Z,0.60
2019-02-24T01:10:41.408Z,0.60
2019-02-24T01:15:46.382Z,0.50
2019-02-24T01:20:55.275Z,0.40
2019-02-24T01:26:02.006Z,0.50
2019-02-24T01:31:05.482Z,0.50
2019-02-24T01:36:08.931Z,0.30
2019-02-24T01:41:13.057Z,0.20
2019-02-24T01:46:16.847Z,0.20
2019-02-24T01:51:21.465Z,0.30
2019-02-24T01:56:24.894Z,0.40
2019-02-24T02:01:28.133Z,0.40
2019-02-24T02:06:33.542Z,0.40
2019-02-24T02:11:36.883Z,0.40
2019-02-24T02:16:40.195Z,0.40
2019-02-24T02:21:43.362Z,0.30
2019-02-24T02:26:46.493Z,0.10
2019-02-24T02:31:52.468Z,0.10
2019-02-24T02:36:56.921Z,0.10
2019-02-24T02:42:01.038Z,0.20
2019-02-24T02:47:04.367Z,0.20
2019-02-24T02:52:16.267Z,0.20
2019-02-24T02:57:19.494Z,0.00
2019-02-24T03:02:24.662Z,0.10
2019-02-24T03:08:00.769Z,0.00
2019-02-24T03:13:04.567Z,0.00
2019-02-24T03:18:08.063Z,0.10
2019-02-24T03:23:11.587Z,0.00
2019-02-24T03:28:14.812Z,-0.10
2019-02-24T03:33:18.247Z,-0.10
2019-02-24T03:38:21.528Z,0.00
2019-02-24T03:43:24.606Z,0.00
2019-02-24T03:48:28.962Z,0.00
2019-02-24T03:53:32.442Z,0.00
2019-02-24T03:58:35.667Z,0.00
2019-02-24T04:03:39.042Z,-0.10
2019-02-24T04:08:42.568Z,-0.10
2019-02-24T04:13:45.935Z,-0.10
2019-02-24T04:18:49.223Z,-0.10
2019-02-24T04:23:52.842Z,-0.10
2019-02-24T04:28:56.166Z,-0.10
2019-02-24T04:33:59.736Z,-0.10
2019-02-24T04:39:03.237Z,-0.10
2019-02-24T04:44:06.562Z,-0.10
2019-02-24T04:49:09.837Z,0.00
2019-02-24T04:54:13.192Z,0.00
2019-02-24T04:59:16.336Z,0.00
2019-02-24T05:04:19.927Z,-0.10
2019-02-24T05:09:23.129Z,-0.10
2019-02-24T05:14:27.687Z,-0.10
2019-02-24T05:19:34.212Z,-0.30
2019-02-24T05:24:38.037Z,-0.30
2019-02-24T05:29:46.022Z,-0.50
2019-02-24T05:34:46.167Z,-0.50
2019-02-24T05:39:50.483Z,-0.50
2019-02-24T05:44:53.919Z,-0.60
2019-02-24T05:49:57.316Z,-0.60
2019-02-24T05:55:01.250Z,-0.60
2019-02-24T06:00:05.672Z,-0.70
2019-02-24T06:05:09.093Z,-0.70
2019-02-24T06:10:12.418Z,-0.70
2019-02-24T06:15:15.723Z,-0.60
2019-02-24T06:20:19.356Z,-0.50
2019-02-24T06:25:24.856Z,-0.40
2019-02-24T06:30:27.845Z,-0.40
2019-02-24T06:35:31.443Z,-0.40
2019-02-24T06:40:34.518Z,-0.30
2019-02-24T06:45:47.046Z,-0.10
2019-02-24T06:50:57.336Z,0.10
2019-02-24T06:56:00.493Z,0.30
2019-02-24T07:06:07.392Z,0.70
2019-02-24T07:11:11.923Z,0.70
2019-02-24T07:16:15.226Z,0.70
2019-02-24T07:21:19.039Z,0.80
2019-02-24T07:26:22.401Z,0.90
2019-02-24T07:31:26.045Z,1.00
2019-02-24T07:36:30.603Z,1.10
2019-02-24T07:41:33.931Z,1.00
2019-02-24T07:46:37.229Z,1.00
2019-02-24T07:51:42.576Z,1.20
2019-02-24T07:56:45.938Z,1.30
2019-02-24T08:01:51.077Z,1.40
2019-02-24T08:06:54.861Z,1.40
2019-02-24T08:11:58.802Z,1.70
2019-02-24T08:17:02.045Z,1.90
2019-02-24T08:22:05.256Z,2.10
2019-02-24T08:27:08.963Z,2.40
2019-02-24T08:32:12.501Z,2.60
2019-02-24T08:37:23.730Z,2.80
2019-02-24T08:42:27.013Z,3.00
2019-02-24T08:47:31.177Z,2.80
2019-02-24T08:52:34.878Z,2.70
2019-02-24T08:57:40.390Z,2.90
2019-02-24T09:02:43.754Z,3.00
2019-02-24T09:07:47.702Z,3.40
2019-02-24T09:12:53.375Z,3.60
2019-02-24T09:17:56.659Z,3.60
2019-02-24T09:22:59.988Z,3.60
2019-02-24T09:28:03.262Z,3.40
2019-02-24T09:33:06.601Z,3.20
2019-02-24T09:38:11.901Z,3.10
2019-02-24T09:43:16.490Z,3.00
2019-02-24T09:48:20.452Z,2.80
2019-02-24T09:53:23.806Z,3.10
2019-02-24T09:58:27.115Z,3.30
2019-02-24T10:03:30.697Z,3.50
2019-02-24T10:08:34.140Z,3.60
2019-02-24T10:13:41.564Z,3.50
2019-02-24T10:18:45.052Z,3.30
2019-02-24T10:23:48.553Z,3.20
2019-02-24T10:28:52.947Z,3.50
2019-02-24T10:33:56.608Z,4.00
2019-02-24T10:39:00.125Z,4.40
2019-02-24T10:44:03.459Z,4.40
2019-02-24T10:49:07.052Z,4.60
2019-02-24T10:54:10.626Z,5.10
2019-02-24T10:59:13.740Z,5.80
2019-02-24T11:04:16.951Z,6.30
2019-02-24T11:09:19.934Z,6.20
2019-02-24T11:14:23.035Z,6.00
2019-02-24T11:19:26.832Z,6.40
2019-02-24T11:24:30.662Z,5.90
2019-02-24T11:29:34.240Z,5.90
2019-02-24T11:34:37.423Z,6.10
2019-02-24T11:39:40.898Z,6.40
2019-02-24T11:44:45.397Z,6.50
2019-02-24T11:49:48.743Z,7.00
2019-02-24T11:54:52.584Z,7.00
2019-02-24T11:59:56.745Z,7.20
2019-02-24T12:05:00.143Z,7.20
2019-02-24T12:10:04.077Z,7.30
2019-02-24T12:15:09.707Z,7.10
2019-02-24T12:20:13.205Z,6.90
2019-02-24T12:25:16.339Z,6.50
2019-02-24T12:30:21.072Z,6.10
2019-02-24T12:35:25.083Z,5.40
2019-02-24T12:40:28.333Z,5.90
2019-02-24T12:45:31.982Z,6.00
2019-02-24T12:50:36.207Z,5.80
2019-02-24T12:55:39.552Z,5.70
2019-02-24T13:00:43.082Z,5.80
2019-02-24T13:05:46.381Z,5.90
2019-02-24T13:10:49.784Z,6.00
2019-02-24T13:15:55.699Z,6.10
2019-02-24T13:20:58.924Z,5.90
2019-02-24T13:26:03.748Z,5.70
2019-02-24T13:31:07.546Z,7.10
2019-02-24T13:36:12.340Z,5.60
2019-02-24T13:41:16.294Z,5.50
2019-02-24T13:46:20.009Z,5.50
2019-02-24T13:51:23.455Z,5.40
2019-02-24T13:56:26.968Z,5.60
2019-02-24T14:01:31.365Z,5.80
2019-02-24T14:06:34.594Z,5.70
2019-02-24T14:11:37.952Z,5.60
2019-02-24T14:16:41.238Z,5.50
2019-02-24T14:21:44.547Z,5.40
2019-02-24T14:26:49.897Z,5.30
2019-02-24T14:31:54.605Z,5.40
2019-02-24T14:37:02.799Z,5.10
2019-02-24T14:42:08.570Z,5.70
2019-02-24T14:47:12.265Z,5.80
2019-02-24T14:52:15.577Z,5.90
2019-02-24T14:57:20.450Z,6.10
2019-02-24T15:02:24.437Z,6.10
2019-02-24T15:07:27.725Z,6.20
2019-02-24T15:12:31.086Z,6.40
2019-02-24T15:17:34.298Z,6.30
2019-02-24T15:27:41.109Z,6.10
2019-02-24T15:32:51.366Z,6.20
2019-02-24T15:42:55.821Z,6.00
2019-02-24T15:47:58.817Z,5.60
2019-02-24T15:53:02.119Z,5.60
2019-02-24T15:58:05.838Z,5.40
2019-02-24T16:03:10.076Z,5.20
2019-02-24T16:08:14.129Z,4.90
2019-02-24T16:13:17.453Z,4.70
2019-02-24T16:18:21.300Z,4.70
2019-02-24T16:23:24.919Z,4.50
2019-02-24T16:28:28.392Z,4.30
2019-02-24T16:33:32.444Z,4.10
2019-02-24T16:38:36.973Z,4.10
2019-02-24T16:43:40.408Z,3.90
2019-02-24T16:48:43.746Z,3.80
2019-02-24T16:53:47.037Z,3.80
2019-02-24T16:58:50.433Z,4.00
2019-02-24T17:03:53.885Z,4.10
2019-02-24T17:09:00.620Z,4.10
2019-02-24T17:14:02.840Z,4.10
2019-02-24T17:19:08.212Z,4.00
2019-02-24T17:24:11.850Z,4.00
2019-02-24T17:29:15.211Z,3.90
2019-02-24T17:34:19.075Z,3.80
2019-02-24T17:39:23.260Z,3.60
2019-02-24T17:44:27.353Z,3.60
2019-02-24T17:49:32.374Z,3.40
2019-02-24T17:54:36.697Z,3.30
2019-02-24T17:59:42.378Z,3.20
2019-02-24T18:04:49.138Z,3.10
2019-02-24T18:09:52.711Z,3.10
2019-02-24T18:14:56.657Z,3.00
2019-02-24T18:19:59.754Z,2.80
2019-02-24T18:25:03.786Z,2.90
2019-02-24T18:30:15.564Z,2.90
2019-02-24T18:35:19.275Z,2.80
2019-02-24T18:40:25.169Z,2.90
2019-02-24T18:45:29.655Z,2.80
2019-02-24T18:50:35.827Z,2.90
2019-02-24T18:55:39.344Z,2.90
2019-02-24T19:00:48.178Z,2.80
2019-02-24T19:05:53.787Z,2.80
2019-02-24T19:10:58.694Z,2.70
2019-02-24T19:16:01.950Z,2.70
2019-02-24T19:21:06.489Z,2.70
2019-02-24T19:26:09.611Z,2.60
2019-02-24T19:31:13.370Z,2.70
2019-02-24T19:36:17.022Z,2.60
2019-02-24T19:41:20.985Z,2.60
2019-02-24T19:46:28.152Z,2.50
2019-02-24T19:51:31.473Z,2.60
2019-02-24T19:56:34.581Z,2.60
2019-02-24T20:01:38.229Z,2.50
2019-02-24T20:06:41.969Z,2.60
2019-02-24T20:11:45.401Z,2.60
2019-02-24T20:16:48.767Z,2.60
2019-02-24T20:21:52.459Z,2.60
2019-02-24T20:26:58.536Z,2.60
2019-02-24T20:32:03.239Z,2.60
2019-02-24T20:37:06.675Z,2.60
2019-02-24T20:42:10.686Z,2.60
2019-02-24T20:47:14.973Z,2.60
2019-02-24T20:52:18.716Z,2.60
2019-02-24T20:57:21.842Z,2.70
2019-02-24T21:02:26.017Z,2.70
2019-02-24T21:07:30.069Z,2.60
2019-02-24T21:12:34.304Z,2.60
2019-02-24T21:22:42.783Z,2.60
2019-02-24T21:27:45.892Z,2.60
2019-02-24T21:32:49.339Z,2.50
2019-02-24T21:37:52.604Z,2.50
2019-02-24T21:42:58.479Z,2.40
2019-02-24T21:48:04.010Z,2.40
2019-02-24T21:53:07.222Z,2.40
2019-02-24T21:58:11.096Z,2.40
2019-02-24T22:03:14.308Z,2.30
2019-02-24T22:08:17.818Z,2.30
2019-02-24T22:13:21.101Z,2.30
2019-02-24T22:18:24.865Z,2.30
2019-02-24T22:23:33.402Z,2.40
2019-02-24T22:28:37.607Z,2.20
2019-02-24T22:33:40.945Z,2.30
2019-02-24T22:38:45.049Z,2.30
2019-02-24T22:43:49.738Z,2.30
2019-02-24T22:48:56.316Z,2.20
2019-02-24T22:54:01.710Z,2.20
2019-02-24T22:59:05.368Z,2.10
2019-02-24T23:04:12.418Z,2.10
2019-02-24T23:09:19.071Z,2.10
2019-02-24T23:14:26.154Z,2.10
2019-02-24T23:19:29.483Z,2.10
2019-02-24T23:24:32.715Z,2.10
2019-02-24T23:29:36.839Z,2.10
2019-02-24T23:34:40.675Z,2.20
2019-02-24T23:39:48.970Z,2.20
2019-02-24T23:44:53.664Z,2.20
2019-02-24T23:49:56.981Z,2.10
2019-02-24T23:55:00.398Z,2.10
